Time;durP1;ratioP1;P1;durP2;ratioP2;P2;SDS_P1;SDS_P2;PMS_P1;PMS_P2;Temp;Humidity;BMP_temperature;BMP_pressure;BME280_temperature;BME280_humidity;BME280_pressure;Samples;Min_cycle;Max_cycle;Signal;HPM_P1;HPM_P2
2020/12/22 00:00:16;;;;;;;21.52;15.90;;;12.50;92.40;;;;;;5051621;28;20100;-75
2020/12/22 00:02:43;;;;;;;20.00;15.50;;;12.60;92.60;;;;;;5052403;28;20017;-76
2020/12/22 00:05:09;;;;;;;18.58;14.30;;;12.60;92.40;;;;;;5052876;28;20127;-76
2020/12/22 00:07:35;;;;;;;15.40;12.50;;;12.70;92.50;;;;;;5051292;28;20474;-76
2020/12/22 00:10:01;;;;;;;7.72;5.70;;;12.60;92.50;;;;;;5052967;28;20045;-76
2020/12/22 00:12:28;;;;;;;16.40;13.60;;;12.70;92.40;;;;;;5051453;28;20119;-76
2020/12/22 00:14:54;;;;;;;12.50;9.82;;;12.70;92.80;;;;;;5052410;28;20013;-76
2020/12/22 00:17:19;;;;;;;15.75;13.60;;;12.70;92.80;;;;;;5052941;28;20490;-76
2020/12/22 00:19:45;;;;;;;15.05;12.35;;;12.80;92.50;;;;;;5052325;28;20024;-76
2020/12/22 00:22:12;;;;;;;23.33;17.75;;;12.80;93.10;;;;;;5051279;28;20102;-76
2020/12/22 00:24:37;;;;;;;16.98;13.90;;;12.80;93.40;;;;;;5050890;28;20063;-76
2020/12/22 00:27:03;;;;;;;17.60;14.23;;;12.80;93.10;;;;;;5052132;28;20480;-76
2020/12/22 00:29:28;;;;;;;17.80;15.10;;;12.80;93.00;;;;;;5052235;28;20511;-76
2020/12/22 00:32:00;;;;;;;10.18;8.27;;;12.90;92.90;;;;;;5051857;28;20147;-75
2020/12/22 00:34:29;;;;;;;9.20;7.68;;;12.90;92.60;;;;;;5050955;28;20009;-75
2020/12/22 00:36:55;;;;;;;15.15;12.18;;;12.90;92.40;;;;;;5052237;28;20113;-75
2020/12/22 00:39:20;;;;;;;14.20;11.43;;;13.00;92.50;;;;;;5051133;28;20075;-76
2020/12/22 00:41:54;;;;;;;8.90;7.40;;;13.00;92.70;;;;;;5050820;28;20468;-77
2020/12/22 00:44:20;;;;;;;13.23;9.45;;;13.00;92.20;;;;;;5052379;28;20032;-76
2020/12/22 00:46:45;;;;;;;16.95;13.35;;;13.00;92.40;;;;;;5051871;28;20040;-76
2020/12/22 00:49:11;;;;;;;16.13;12.48;;;13.10;93.10;;;;;;5051042;28;20020;-77
2020/12/22 00:51:37;;;;;;;13.57;10.32;;;13.10;93.00;;;;;;5050722;28;20053;-76
2020/12/22 00:54:02;;;;;;;13.43;11.63;;;13.10;92.70;;;;;;5050916;28;20464;-76
2020/12/22 00:56:28;;;;;;;12.70;11.15;;;13.10;92.20;;;;;;5056315;28;20032;-76
2020/12/22 00:58:53;;;;;;;13.55;11.75;;;13.20;92.10;;;;;;5056114;28;20025;-76
2020/12/22 01:01:19;;;;;;;11.77;10.00;;;13.20;92.30;;;;;;5056619;28;20100;-76
2020/12/22 01:03:45;;;;;;;14.75;12.13;;;13.20;92.20;;;;;;5056347;28;20086;-75
2020/12/22 01:06:11;;;;;;;12.70;9.82;;;13.20;92.70;;;;;;5056195;28;20032;-75
2020/12/22 01:08:37;;;;;;;13.77;10.73;;;13.20;92.70;;;;;;5054629;28;20024;-75
2020/12/22 01:11:02;;;;;;;6.55;5.22;;;13.20;92.80;;;;;;5054880;28;20017;-75
2020/12/22 01:13:28;;;;;;;8.98;6.97;;;13.20;92.50;;;;;;5054901;28;20369;-76
2020/12/22 01:15:54;;;;;;;13.30;9.43;;;13.30;92.40;;;;;;5054500;28;20593;-76
2020/12/22 01:18:19;;;;;;;9.40;7.47;;;13.30;92.70;;;;;;5056056;28;20025;-76
2020/12/22 01:20:48;;;;;;;11.45;8.00;;;13.30;92.70;;;;;;5055362;28;20017;-75
2020/12/22 01:23:13;;;;;;;8.15;6.68;;;13.30;92.20;;;;;;5054594;28;20020;-76
2020/12/22 01:25:40;;;;;;;11.05;9.10;;;13.30;92.20;;;;;;5053870;28;20066;-76
2020/12/22 01:28:05;;;;;;;9.85;7.93;;;13.30;92.50;;;;;;5054506;28;20024;-76
2020/12/22 01:30:31;;;;;;;9.82;7.57;;;13.40;92.40;;;;;;5055687;28;20413;-75
2020/12/22 01:32:56;;;;;;;9.93;7.72;;;13.40;92.60;;;;;;5054063;28;20017;-76
2020/12/22 01:35:22;;;;;;;10.02;5.63;;;13.40;92.80;;;;;;5055739;28;20016;-76
2020/12/22 01:37:48;;;;;;;11.52;8.57;;;13.40;92.80;;;;;;5055452;28;20357;-76
2020/12/22 01:40:13;;;;;;;7.00;4.95;;;13.40;92.50;;;;;;5055512;28;20348;-76
2020/12/22 01:42:43;;;;;;;7.82;5.47;;;13.40;92.70;;;;;;5053980;28;20473;-76
2020/12/22 01:45:12;;;;;;;8.17;6.60;;;13.40;92.50;;;;;;5055424;28;20028;-76
2020/12/22 01:47:49;;;;;;;8.50;5.68;;;13.40;92.40;;;;;;5053900;28;20031;-76
2020/12/22 01:50:16;;;;;;;8.68;6.53;;;13.40;92.60;;;;;;5054112;28;20052;-75
2020/12/22 01:52:42;;;;;;;8.25;6.32;;;13.40;92.50;;;;;;5054721;28;20036;-75
2020/12/22 01:55:08;;;;;;;7.88;4.95;;;13.40;92.90;;;;;;5054018;28;20063;-76
2020/12/22 01:57:34;;;;;;;5.68;3.95;;;13.40;92.80;;;;;;5055288;28;20020;-76
2020/12/22 02:00:00;;;;;;;6.15;4.22;;;13.40;93.00;;;;;;5055031;28;20021;-75
2020/12/22 02:02:26;;;;;;;6.88;4.80;;;13.40;93.00;;;;;;5055108;28;20017;-75
2020/12/22 02:04:52;;;;;;;7.47;5.07;;;13.40;92.90;;;;;;5055038;28;20100;-75
2020/12/22 02:07:19;;;;;;;7.50;4.85;;;13.40;93.40;;;;;;5053765;28;20033;-75
2020/12/22 02:09:46;;;;;;;6.38;4.07;;;13.50;93.20;;;;;;5054829;28;20029;-75
2020/12/22 02:12:12;;;;;;;6.40;3.72;;;13.50;93.00;;;;;;5054747;28;20631;-75
2020/12/22 02:14:37;;;;;;;5.15;3.33;;;13.50;92.50;;;;;;5054681;28;20032;-75
2020/12/22 02:17:03;;;;;;;5.15;2.50;;;13.50;92.70;;;;;;5054824;28;20039;-75
2020/12/22 02:19:29;;;;;;;4.90;2.47;;;13.50;92.30;;;;;;5053605;28;20017;-75
2020/12/22 02:21:54;;;;;;;5.70;3.70;;;13.50;91.80;;;;;;5053271;28;20048;-75
2020/12/22 02:24:20;;;;;;;6.00;4.10;;;13.50;92.30;;;;;;5053380;28;20033;-75
2020/12/22 02:26:46;;;;;;;5.93;4.28;;;13.50;92.70;;;;;;5052774;28;20025;-75
2020/12/22 02:29:11;;;;;;;5.80;3.58;;;13.50;93.10;;;;;;5053149;28;20508;-75
2020/12/22 02:31:37;;;;;;;6.28;4.47;;;13.50;93.10;;;;;;5054616;28;20045;-76
2020/12/22 02:34:03;;;;;;;6.47;4.40;;;13.50;93.10;;;;;;5054347;28;20044;-75
2020/12/22 02:36:28;;;;;;;9.95;5.47;;;13.50;93.10;;;;;;5054574;28;20103;-75
2020/12/22 02:38:54;;;;;;;8.75;4.97;;;13.60;93.20;;;;;;5054033;28;20055;-75
2020/12/22 02:41:19;;;;;;;6.32;4.50;;;13.50;93.20;;;;;;5054788;28;20100;-75
2020/12/22 02:43:45;;;;;;;7.13;4.47;;;13.50;92.90;;;;;;5052887;28;20020;-75
2020/12/22 02:46:11;;;;;;;7.55;5.13;;;13.60;92.70;;;;;;5054295;28;20029;-76
2020/12/22 02:48:37;;;;;;;7.28;5.35;;;13.50;93.00;;;;;;5053003;28;20017;-76
2020/12/22 02:51:03;;;;;;;8.23;5.95;;;;;;;;;;5052740;28;20477;-76
2020/12/22 02:53:29;;;;;;;6.80;6.07;;;;;;;;;;5052951;28;20353;-76
2020/12/22 02:55:55;;;;;;;8.10;5.65;;;;;;;;;;5052738;28;20035;-76
2020/12/22 02:58:21;;;;;;;6.70;5.47;;;;;;;;;;5053915;28;20013;-76
2020/12/22 03:00:47;;;;;;;9.65;6.03;;;;;;;;;;5052572;28;20373;-76
2020/12/22 03:03:14;;;;;;;9.27;6.53;;;;;;;;;;5054032;28;20021;-75
2020/12/22 03:05:40;;;;;;;8.15;5.40;;;;;;;;;;5052819;28;20056;-75
2020/12/22 03:08:07;;;;;;;7.05;5.63;;;;;;;;;;5053997;28;20021;-76
2020/12/22 03:10:34;;;;;;;7.43;6.05;;;;;;;;;;5052537;28;20469;-76
2020/12/22 03:13:00;;;;;;;9.13;6.15;;;;;;;;;;5052313;28;20021;-76
2020/12/22 03:15:26;;;;;;;8.88;6.05;;;;;;;;;;5053594;28;20021;-76
2020/12/22 03:17:52;;;;;;;5.68;3.40;;;;;;;;;;5051733;28;20479;-76
2020/12/22 03:20:18;;;;;;;5.63;4.15;;;;;;;;;;5052399;28;20020;-76
2020/12/22 03:22:44;;;;;;;9.43;5.88;;;;;;;;;;5052134;28;20021;-76
2020/12/22 03:25:11;;;;;;;8.40;6.15;;;;;;;;;;5053506;28;20012;-75
2020/12/22 03:27:37;;;;;;;7.15;4.50;;;;;;;;;;5053427;28;20020;-75
2020/12/22 03:30:05;;;;;;;6.55;3.85;;;;;;;;;;5053180;28;20083;-75
2020/12/22 03:32:31;;;;;;;7.18;2.85;;;;;;;;;;5052106;28;20461;-75
2020/12/22 03:34:57;;;;;;;8.48;4.10;;;;;;;;;;5053266;28;20028;-76
2020/12/22 03:37:23;;;;;;;4.32;2.67;;;;;;;;;;5053459;28;20024;-76
2020/12/22 03:39:53;;;;;;;5.35;3.00;;;;;;;;;;5053112;28;20048;-76
2020/12/22 03:42:20;;;;;;;5.97;2.83;;;;;;;;;;5051965;28;20519;-76
2020/12/22 03:44:47;;;;;;;7.13;3.25;;;;;;;;;;5051413;28;20064;-75
2020/12/22 03:47:13;;;;;;;5.18;2.55;;;;;;;;;;5053045;28;20029;-76
2020/12/22 03:49:40;;;;;;;5.53;3.20;;;;;;;;;;5053173;28;20044;-74
2020/12/22 03:52:06;;;;;;;6.05;2.65;;;;;;;;;;5051591;28;20017;-74
2020/12/22 03:54:32;;;;;;;3.60;2.20;;;;;;;;;;5053094;28;20485;-74
2020/12/22 03:56:58;;;;;;;7.80;3.10;;;;;;;;;;5052781;28;20096;-75
2020/12/22 03:59:25;;;;;;;3.78;1.98;;;;;;;;;;5053073;28;20020;-75
2020/12/22 04:01:51;;;;;;;5.60;1.90;;;;;;;;;;5052734;28;20017;-75
2020/12/22 04:04:21;;;;;;;4.38;2.40;;;;;;;;;;5051701;28;20072;-75
2020/12/22 04:06:47;;;;;;;;;;;;;;;;;;5051712;28;20428;-75
2020/12/22 04:09:14;;;;;;;5.50;2.50;;;;;;;;;;5051484;28;19956;-75
2020/12/22 04:11:40;;;;;;;5.45;2.53;;;;;;;;;;5052797;28;20017;-75
2020/12/22 04:14:10;;;;;;;3.38;2.30;;;;;;;;;;5052568;28;20154;-75
2020/12/22 04:16:37;;;;;;;3.38;1.98;;;;;;;;;;5052482;28;20017;-75
2020/12/22 04:19:03;;;;;;;4.13;2.40;;;;;;;;;;5052659;28;20033;-75
2020/12/22 04:21:30;;;;;;;4.05;2.50;;;;;;;;;;5051301;28;20021;-75
2020/12/22 04:23:56;;;;;;;4.60;2.30;;;;;;;;;;5052411;28;20442;-76
2020/12/22 04:26:22;;;;;;;4.63;1.98;;;;;;;;;;5052423;28;20025;-76
2020/12/22 04:28:48;;;;;;;3.00;1.38;;;;;;;;;;5050491;28;20028;-75
2020/12/22 04:31:14;;;;;;;2.88;1.10;;;;;;;;;;5050515;28;20303;-76
2020/12/22 04:33:40;;;;;;;3.00;1.42;;;;;;;;;;5051090;28;20017;-75
2020/12/22 04:36:06;;;;;;;2.28;1.20;;;;;;;;;;5052210;28;20396;-75
2020/12/22 04:38:32;;;;;;;2.50;1.42;;;;;;;;;;5052405;28;20477;-75
2020/12/22 04:41:03;;;;;;;3.00;1.33;;;;;;;;;;5052101;28;20070;-75
2020/12/22 04:43:30;;;;;;;3.58;1.25;;;;;;;;;;5052360;28;20017;-76
2020/12/22 04:46:01;;;;;;;2.63;1.20;;;;;;;;;;5050731;28;20033;-76
2020/12/22 04:48:29;;;;;;;2.58;1.50;;;;;;;;;;5051066;28;20025;-76
2020/12/22 04:50:55;;;;;;;4.35;2.70;;;;;;;;;;5052335;28;20017;-75
2020/12/22 04:53:22;;;;;;;4.45;2.75;;;;;;;;;;5050950;28;20017;-75
2020/12/22 04:55:48;;;;;;;5.13;3.08;;;;;;;;;;5052120;28;20025;-75
2020/12/22 04:58:14;;;;;;;5.30;3.95;;;;;;;;;;5052231;28;20095;-75
2020/12/22 05:00:40;;;;;;;5.10;3.42;;;;;;;;;;5052193;28;20406;-75
2020/12/22 05:03:06;;;;;;;5.57;3.45;;;;;;;;;;5050605;28;20063;-76
2020/12/22 05:05:32;;;;;;;5.18;3.05;;;;;;;;;;5050847;28;20029;-75
2020/12/22 05:07:58;;;;;;;6.32;3.60;;;;;;;;;;5052244;28;20100;-75
2020/12/22 05:10:24;;;;;;;4.07;2.10;;;;;;;;;;5052135;28;20021;-75
2020/12/22 05:12:50;;;;;;;4.72;2.75;;;;;;;;;;5050518;28;20361;-74
2020/12/22 05:15:17;;;;;;;3.88;1.98;;;;;;;;;;5050721;28;20369;-74
2020/12/22 05:17:44;;;;;;;4.25;1.70;;;;;;;;;;5052046;28;20024;-75
2020/12/22 05:20:13;;;;;;;3.17;1.50;;;;;;;;;;5051811;28;20021;-76
2020/12/22 05:22:39;;;;;;;3.67;0.98;;;;;;;;;;5052031;28;20108;-75
2020/12/22 05:25:05;;;;;;;4.13;1.20;;;;;;;;;;5051521;28;20044;-76
2020/12/22 05:27:32;;;;;;;6.20;1.77;;;;;;;;;;5050356;28;20025;-77
2020/12/22 05:30:04;;;;;;;2.20;1.27;;;;;;;;;;5050205;28;20087;-76
2020/12/22 05:32:30;;;;;;;5.50;1.83;;;;;;;;;;5051901;28;20024;-75
2020/12/22 05:34:57;;;;;;;4.25;1.55;;;;;;;;;;5051685;28;20148;-75
2020/12/22 05:37:23;;;;;;;3.35;1.92;;;;;;;;;;5051876;28;20028;-75
2020/12/22 05:39:50;;;;;;;2.22;1.38;;;;;;;;;;5050497;28;20032;-75
2020/12/22 05:42:16;;;;;;;3.22;1.60;;;;;;;;;;5055204;28;20024;-75
2020/12/22 05:44:49;;;;;;;4.47;2.20;;;;;;;;;;5055519;28;20032;-76
2020/12/22 05:47:16;;;;;;;4.85;2.50;;;;;;;;;;5055192;28;20079;-74
2020/12/22 05:49:55;;;;;;;4.18;1.70;;;;;;;;;;5055457;28;20044;-74
2020/12/22 05:52:25;;;;;;;5.35;2.17;;;;;;;;;;5055373;28;20021;-75
2020/12/22 05:54:51;;;;;;;5.47;2.20;;;;;;;;;;5055209;28;20021;-74
2020/12/22 05:57:44;;;;;;;4.82;1.80;;;;;;;;;;5055353;28;20438;-76
2020/12/22 06:00:14;;;;;;;4.32;1.80;;;;;;;;;;5055615;28;20029;-76
2020/12/22 06:02:40;;;;;;;;;;;;;;;;;;5054248;28;20461;-75
2020/12/22 06:05:06;;;;;;;2.75;1.58;;;;;;;;;;5053561;28;19900;-74
2020/12/22 06:07:32;;;;;;;6.47;1.92;;;;;;;;;;5055181;28;20392;-74
2020/12/22 06:09:58;;;;;;;8.13;1.65;;;;;;;;;;5053482;28;20051;-75
2020/12/22 06:12:25;;;;;;;4.88;1.42;;;;;;;;;;5053585;28;20476;-75
2020/12/22 06:14:52;;;;;;;8.48;1.85;;;;;;;;;;5053604;28;20025;-75
2020/12/22 06:17:19;;;;;;;5.50;1.88;;;;;;;;;;5053529;28;20365;-75
2020/12/22 06:19:45;;;;;;;7.53;1.50;;;;;;;;;;5053552;28;20017;-74
2020/12/22 06:22:12;;;;;;;5.60;2.10;;;;;;;;;;5054600;28;20100;-74
2020/12/22 06:24:39;;;;;;;5.90;2.33;;;;;;;;;;5054627;28;20032;-75
2020/12/22 06:27:07;;;;;;;12.45;3.90;;;;;;;;;;5054416;28;20028;-75
2020/12/22 06:29:33;;;;;;;8.40;3.55;;;;;;;;;;5053193;28;20013;-75
2020/12/22 06:32:19;;;;;;;12.57;5.28;;;;;;;;;;5054083;28;20017;-73
2020/12/22 06:34:45;;;;;;;13.77;6.20;;;;;;;;;;5052756;28;20036;-74
2020/12/22 06:37:12;;;;;;;9.88;5.95;;;;;;;;;;5054282;28;20021;-73
2020/12/22 06:39:40;;;;;;;12.07;6.35;;;;;;;;;;5054746;28;20064;-75
2020/12/22 06:42:06;;;;;;;11.05;7.55;;;;;;;;;;5054171;28;20024;-75
2020/12/22 06:44:32;;;;;;;14.93;6.85;;;;;;;;;;5052993;28;20043;-75
2020/12/22 06:46:58;;;;;;;17.45;9.00;;;;;;;;;;5052594;28;20445;-75
2020/12/22 06:49:43;;;;;;;13.77;8.57;;;;;;;;;;5054286;28;20442;-75
2020/12/22 06:52:28;;;;;;;13.02;6.88;;;;;;;;;;5053039;28;20021;-75
2020/12/22 06:54:54;;;;;;;13.82;7.82;;;;;;;;;;5052856;28;20021;-75
2020/12/22 06:57:38;;;;;;;12.35;7.07;;;;;;;;;;5054205;28;20021;-75
2020/12/22 07:00:05;;;;;;;14.10;7.05;;;;;;;;;;5052558;28;20020;-75
2020/12/22 07:02:31;;;;;;;14.00;6.65;;;;;;;;;;5053708;28;20411;-75
2020/12/22 07:05:01;;;;;;;12.45;6.35;;;;;;;;;;5053526;28;20396;-75
2020/12/22 07:07:47;;;;;;;11.02;5.35;;;;;;;;;;5052555;28;20040;-74
2020/12/22 07:10:15;;;;;;;11.30;5.63;;;;;;;;;;5052228;28;20048;-75
2020/12/22 07:12:41;;;;;;;11.20;5.35;;;;;;;;;;5052614;28;20017;-76
2020/12/22 07:15:07;;;;;;;8.27;4.50;;;;;;;;;;5052221;28;20459;-75
2020/12/22 07:17:33;;;;;;;10.95;4.85;;;;;;;;;;5052442;28;20020;-75
2020/12/22 07:19:59;;;;;;;9.40;3.00;;;;;;;;;;5053446;28;20357;-74
2020/12/22 07:22:25;;;;;;;9.55;3.25;;;;;;;;;;5053279;28;20017;-74
2020/12/22 07:24:51;;;;;;;11.50;2.83;;;;;;;;;;5053393;28;20051;-74
2020/12/22 07:27:17;;;;;;;7.88;2.08;;;;;;;;;;5053162;28;20036;-74
2020/12/22 07:29:43;;;;;;;6.05;1.70;;;;;;;;;;5051833;28;20020;-76
2020/12/22 07:32:09;;;;;;;6.75;2.33;;;;;;;;;;5051875;28;20021;-76
2020/12/22 07:34:36;;;;;;;11.10;2.03;;;;;;;;;;5053554;28;20020;-75
2020/12/22 07:37:04;;;;;;;10.45;2.25;;;;;;;;;;5051834;28;20378;-75
2020/12/22 07:39:31;;;;;;;4.47;1.70;;;;;;;;;;5052008;28;20013;-75
2020/12/22 07:41:58;;;;;;;10.95;2.67;;;;;;;;;;5053068;28;20352;-75
2020/12/22 07:44:24;;;;;;;9.82;2.05;;;;;;;;;;5051826;28;20075;-75
2020/12/22 07:46:53;;;;;;;7.15;1.58;;;;;;;;;;5052820;28;20095;-76
2020/12/22 07:49:20;;;;;;;6.75;1.33;;;;;;;;;;5052853;28;20013;-76
2020/12/22 07:51:47;;;;;;;11.00;2.10;;;;;;;;;;5053984;28;20055;-76
2020/12/22 07:54:13;;;;;;;7.03;2.00;;;;;;;;;;5060972;28;20013;-76
2020/12/22 07:56:43;;;;;;;6.95;1.48;;;;;;;;;;5060458;28;20083;-76
2020/12/22 07:59:10;;;;;;;8.93;1.80;;;;;;;;;;5060177;28;20013;-76
2020/12/22 08:01:39;;;;;;;9.57;2.78;;;;;;;;;;5060530;28;20059;-76
2020/12/22 08:04:12;;;;;;;15.90;2.33;;;;;;;;;;5060421;28;20013;-77
2020/12/22 08:06:39;;;;;;;14.25;2.90;;;;;;;;;;5059105;28;20401;-76
2020/12/22 08:09:05;;;;;;;11.15;2.28;;;;;;;;;;5065878;28;20017;-76
2020/12/22 08:11:32;;;;;;;7.05;1.20;;;;;;;;;;5059775;28;20025;-76
2020/12/22 08:14:00;;;;;;;13.30;2.92;;;;;;;;;;5059809;28;20013;-75
2020/12/22 08:16:28;;;;;;;10.07;2.17;;;;;;;;;;5058653;28;20060;-76
2020/12/22 08:18:54;;;;;;;9.93;1.58;;;;;;;;;;5060735;28;20419;-75
2020/12/22 08:21:20;;;;;;;9.52;1.50;;;;;;;;;;5059896;28;20484;-75
2020/12/22 08:23:46;;;;;;;12.35;2.40;;;;;;;;;;5058948;28;20036;-76
2020/12/22 08:26:17;;;;;;;11.10;2.17;;;;;;;;;;5059300;28;20036;-76
2020/12/22 08:28:50;;;;;;;10.10;2.42;;;;;;;;;;5060587;28;20164;-75
2020/12/22 08:31:16;;;;;;;15.82;2.97;;;;;;;;;;5066605;28;20048;-77
2020/12/22 08:33:42;;;;;;;9.73;2.20;;;;;;;;;;5056511;28;20493;-77
2020/12/22 08:36:11;;;;;;;12.88;2.13;;;;;;;;;;5050906;28;20032;-76
2020/12/22 08:38:38;;;;;;;9.18;1.77;;;;;;;;;;5051163;28;20133;-77
2020/12/22 08:41:17;;;;;;;7.72;1.67;;;;;;;;;;5052160;28;20444;-76
2020/12/22 08:43:47;;;;;;;14.30;2.38;;;;;;;;;;5051092;28;20070;-77
2020/12/22 08:46:13;;;;;;;;;;;;;;;;;;5051153;28;20434;-77
2020/12/22 08:48:40;;;;;;;13.63;2.42;;;;;;;;;;5051116;28;20357;-77
2020/12/22 08:51:06;;;;;;;8.45;1.40;;;;;;;;;;5052079;28;20096;-77
2020/12/22 08:53:32;;;;;;;9.32;2.25;;;;;;;;;;5052316;28;20052;-78
2020/12/22 08:56:11;;;;;;;9.50;1.90;;;;;;;;;;5052198;28;20025;-77
2020/12/22 08:58:54;;;;;;;9.05;1.65;;;;;;;;;;5051012;28;20021;-78
2020/12/22 09:01:25;;;;;;;8.82;1.65;;;;;;;;;;5050657;28;20387;-78
2020/12/22 09:03:52;;;;;;;10.77;2.67;;;;;;;;;;5052225;28;20021;-78
2020/12/22 09:06:18;;;;;;;10.32;2.42;;;;;;;;;;5050689;28;20029;-77
2020/12/22 09:08:46;;;;;;;13.10;2.53;;;;;;;;;;5057271;28;20017;-78
2020/12/22 09:11:22;;;;;;;16.48;2.70;;;;;;;;;;5058225;28;20020;-77
2020/12/22 09:13:58;;;;;;;10.23;2.00;;;;;;;;;;5062230;28;20174;-77
2020/12/22 09:16:24;;;;;;;9.82;2.10;;;;;;;;;;5062364;28;20058;-78
2020/12/22 09:19:03;;;;;;;12.30;2.45;;;;;;;;;;5064123;28;20017;-77
2020/12/22 09:21:29;;;;;;;12.85;2.65;;;;;;;;;;5063746;28;20017;-77
2020/12/22 09:23:55;;;;;;;14.82;2.65;;;;;;;;;;5063522;28;20442;-77
2020/12/22 09:26:21;;;;;;;12.43;2.53;;;;;;;;;;5066763;28;20024;-77
2020/12/22 09:28:48;;;;;;;17.17;3.47;;;;;;;;;;5063417;28;20182;-77
2020/12/22 09:31:22;;;;;;;13.52;2.60;;;;;;;;;;5057033;28;20047;-76
2020/12/22 09:33:48;;;;;;;13.23;2.40;;;;;;;;;;5056006;28;20024;-77
2020/12/22 09:36:14;;;;;;;15.60;3.50;;;;;;;;;;5054113;28;20021;-77
2020/12/22 09:38:40;;;;;;;13.65;2.10;;;;;;;;;;5055672;28;20365;-77
2020/12/22 09:41:06;;;;;;;13.88;2.20;;;;;;;;;;5054017;28;20048;-78
2020/12/22 09:43:32;;;;;;;19.85;3.15;;;;;;;;;;5055530;28;20122;-77
2020/12/22 09:45:58;;;;;;;14.80;1.83;;;;;;;;;;5054078;28;20140;-77
2020/12/22 09:48:24;;;;;;;13.45;2.95;;;;;;;;;;5053875;28;20517;-78
2020/12/22 09:50:50;;;;;;;15.07;2.55;;;;;;;;;;5054070;28;20112;-74
2020/12/22 09:53:16;;;;;;;16.15;2.20;;;;;;;;;;5055090;28;20059;-77
2020/12/22 09:55:42;;;;;;;16.52;2.80;;;;;;;;;;5054025;28;20053;-76
2020/12/22 09:58:08;;;;;;;22.10;3.42;;;;;;;;;;5053709;28;20372;-76
2020/12/22 10:00:34;;;;;;;14.45;2.78;;;;;;;;;;5063106;28;20119;-78
2020/12/22 10:03:00;;;;;;;11.80;3.78;;;;;;;;;;5074627;28;20092;-77
2020/12/22 10:05:26;;;;;;;13.98;3.13;;;;;;;;;;5066690;28;20108;-77
2020/12/22 10:07:52;;;;;;;16.40;4.20;;;;;;;;;;5073578;28;20453;-75
2020/12/22 10:10:18;;;;;;;19.00;4.65;;;;;;;;;;5073106;28;20021;-75
2020/12/22 10:12:44;;;;;;;13.40;3.55;;;;;;;;;;5074703;28;20020;-76
2020/12/22 10:15:10;;;;;;;15.23;3.17;;;;;;;;;;5073085;28;20040;-76
2020/12/22 10:17:36;;;;;;;11.95;2.40;;;;;;;;;;5073609;28;20457;-76
2020/12/22 10:20:02;;;;;;;12.50;2.47;;;;;;;;;;5074830;28;20013;-76
2020/12/22 10:22:31;;;;;;;11.00;1.88;;;;;;;;;;5074908;28;20017;-76
2020/12/22 10:24:57;;;;;;;11.20;1.80;;;;;;;;;;5066362;28;20059;-76
2020/12/22 10:27:23;;;;;;;13.13;2.42;;;;;;;;;;5052810;28;20783;-76
2020/12/22 10:29:49;;;;;;;10.63;2.28;;;;;;;;;;5053273;28;20128;-77
2020/12/22 10:32:15;;;;;;;11.35;2.70;;;;;;;;;;5053085;28;20453;-76
2020/12/22 10:34:41;;;;;;;15.70;3.47;;;;;;;;;;5053128;28;20036;-76
2020/12/22 10:37:07;;;;;;;14.10;4.03;;;;;;;;;;5053706;28;20017;-76
2020/12/22 10:39:34;;;;;;;10.32;3.00;;;;;;;;;;5053636;28;20503;-76
2020/12/22 10:42:00;;;;;;;9.95;2.78;;;;;;;;;;5053831;28;20025;-76
2020/12/22 10:44:26;;;;;;;14.43;3.65;;;;;;;;;;5052244;28;20017;-76
2020/12/22 10:46:52;;;;;;;11.73;2.97;;;;;;;;;;5053751;28;20206;-77
2020/12/22 10:49:18;;;;;;;12.27;2.90;;;;;;;;;;5053398;28;20024;-76
2020/12/22 10:51:44;;;;;;;12.00;3.88;;;;;;;;;;5052290;28;20021;-77
2020/12/22 10:54:10;;;;;;;10.25;3.30;;;;;;;;;;5051810;28;20032;-76
2020/12/22 10:56:36;;;;;;;11.70;4.30;;;;;;;;;;5052069;28;20025;-77
2020/12/22 10:59:02;;;;;;;18.35;6.18;;;;;;;;;;5052186;28;20025;-77
2020/12/22 11:01:28;;;;;;;18.23;5.22;;;;;;;;;;5051924;28;20024;-77
2020/12/22 11:03:54;;;;;;;14.20;5.43;;;;;;;;;;5052105;28;20115;-77
2020/12/22 11:08:56;;;;;;;14.57;5.05;;;;;;;;;;5053424;28;20102;-77
2020/12/22 11:11:24;;;;;;;12.95;6.00;;;;;;;;;;5051472;28;20029;-77
2020/12/22 11:13:53;;;;;;;13.20;4.80;;;;;;;;;;5053185;28;20013;-77
2020/12/22 11:16:26;;;;;;;13.27;5.57;;;;;;;;;;5051732;28;20025;-74
2020/12/22 11:18:52;;;;;;;11.25;4.43;;;;;;;;;;5053241;28;20123;-77
2020/12/22 11:21:20;;;;;;;12.18;3.67;;;;;;;;;;5051536;28;20507;-77
2020/12/22 11:23:46;;;;;;;7.32;2.58;;;;;;;;;;5053028;28;20021;-77
2020/12/22 11:26:19;;;;;;;8.52;1.95;;;;;;;;;;5051337;28;20033;-76
2020/12/22 11:28:45;;;;;;;4.63;1.70;;;;;;;;;;5052661;28;20100;-76
2020/12/22 11:31:11;;;;;;;7.25;1.95;;;;;;;;;;5051082;28;20059;-77
2020/12/22 11:33:39;;;;;;;8.32;1.88;;;;;;;;;;5051473;28;20017;-77
2020/12/22 11:36:05;;;;;;;6.70;2.00;;;;;;;;;;5052612;28;20025;-77
2020/12/22 11:38:31;;;;;;;4.32;1.35;;;;;;;;;;5050976;28;20527;-77
2020/12/22 11:40:57;;;;;;;9.60;2.00;;;;;;;;;;5052747;28;20021;-76
2020/12/22 11:43:23;;;;;;;9.60;1.60;;;;;;;;;;5051153;28;20092;-77
2020/12/22 11:45:49;;;;;;;7.05;1.67;;;;;;;;;;5062345;28;20457;-77
2020/12/22 11:48:15;;;;;;;5.43;1.70;;;;;;;;;;5071679;28;20036;-77
2020/12/22 11:50:41;;;;;;;4.45;0.95;;;;;;;;;;5070600;28;20510;-76
2020/12/22 11:53:07;;;;;;;3.80;0.93;;;;;;;;;;5070230;28;20385;-77
2020/12/22 11:55:34;;;;;;;6.32;1.20;;;;;;;;;;5070465;28;20376;-77
2020/12/22 11:58:00;;;;;;;5.20;1.02;;;;;;;;;;5072140;28;20078;-77
2020/12/22 12:00:26;;;;;;;6.47;1.40;;;;;;;;;;5069962;28;20391;-77
2020/12/22 12:02:52;;;;;;;3.92;0.93;;;;;;;;;;5072030;28;20023;-77
2020/12/22 12:05:18;;;;;;;3.15;1.23;;;;;;;;;;5070155;28;20058;-77
2020/12/22 12:07:44;;;;;;;4.85;1.08;;;;;;;;;;5071827;28;20032;-77
2020/12/22 12:10:10;;;;;;;3.13;1.38;;;;;;;;;;5068847;28;20472;-77
2020/12/22 12:12:36;;;;;;;3.53;1.60;;;;;;;;;;5070459;28;20016;-76
2020/12/22 12:15:03;;;;;;;3.80;1.15;;;;;;;;;;5071182;28;20051;-75
2020/12/22 12:17:30;;;;;;;4.88;1.63;;;;;;;;;;5061140;28;20422;-74
2020/12/22 12:19:56;;;;;;;3.70;1.67;;;;;;;;;;5059903;28;20449;-76
2020/12/22 12:22:22;;;;;;;5.28;1.60;;;;;;;;;;5059964;28;20449;-76
2020/12/22 12:24:48;;;;;;;5.05;2.13;;;;;;;;;;5059585;28;20017;-76
2020/12/22 12:27:14;;;;;;;3.53;1.90;;;;;;;;;;5060236;28;20020;-76
2020/12/22 12:29:40;;;;;;;6.85;2.38;;;;;;;;;;5061179;28;20017;-76
2020/12/22 12:32:06;;;;;;;5.82;2.05;;;;;;;;;;5058853;28;20457;-76
2020/12/22 12:34:33;;;;;;;5.80;2.55;;;;;;;;;;5059374;28;20024;-77
2020/12/22 12:36:59;;;;;;;3.50;1.98;;;;;;;;;;5061495;28;20488;-76
2020/12/22 12:39:25;;;;;;;10.60;2.88;;;;;;;;;;5058667;28;20017;-76
2020/12/22 12:41:51;;;;;;;6.85;2.53;;;;;;;;;;5059378;28;20155;-76
2020/12/22 12:44:17;;;;;;;6.97;2.72;;;;;;;;;;5060095;28;20382;-75
2020/12/22 12:46:44;;;;;;;6.18;1.83;;;;;;;;;;5062479;28;20017;-76
2020/12/22 12:49:12;;;;;;;7.40;2.80;;;;;;;;;;5059206;28;20017;-76
2020/12/22 12:51:41;;;;;;;8.23;3.10;;;;;;;;;;5057720;28;20021;-76
2020/12/22 12:54:07;;;;;;;9.27;3.58;;;;;;;;;;5060629;28;20009;-75
2020/12/22 12:56:33;;;;;;;7.32;3.10;;;;;;;;;;5062011;28;20028;-75
2020/12/22 12:59:00;;;;;;;12.48;3.72;;;;;;;;;;5059306;28;20014;-76
2020/12/22 13:01:27;;;;;;;13.63;3.50;;;;;;;;;;5060066;28;20064;-76
2020/12/22 13:03:53;;;;;;;11.65;3.40;;;;;;;;;;5060699;28;20024;-78
2020/12/22 13:06:19;;;;;;;8.18;3.65;;;;;;;;;;5058400;28;20110;-77
2020/12/22 13:08:46;;;;;;;13.10;4.85;;;;;;;;;;5061828;28;20044;-75
2020/12/22 13:11:15;;;;;;;8.80;3.50;;;;;;;;;;5060280;28;20024;-78
2020/12/22 13:13:42;;;;;;;7.57;2.90;;;;;;;;;;5058807;28;20483;-77
2020/12/22 13:16:12;;;;;;;9.55;3.20;;;;;;;;;;5061865;28;20019;-77
2020/12/22 13:18:38;;;;;;;9.10;2.90;;;;;;;;;;5061452;28;20100;-76
2020/12/22 13:21:05;;;;;;;12.68;3.17;;;;;;;;;;5058590;28;20044;-76
2020/12/22 13:23:32;;;;;;;11.68;4.05;;;;;;;;;;5060352;28;20460;-77
2020/12/22 13:25:58;;;;;;;12.20;4.18;;;;;;;;;;5059169;28;20021;-76
2020/12/22 13:28:24;;;;;;;10.27;3.08;;;;;;;;;;5052786;28;20021;-76
2020/12/22 13:30:50;;;;;;;9.55;2.95;;;;;;;;;;5050291;28;20041;-76
2020/12/22 13:33:16;;;;;;;12.73;5.00;;;;;;;;;;5050286;28;20021;-77
2020/12/22 13:35:42;;;;;;;11.20;4.45;;;;;;;;;;5050490;28;20024;-78
2020/12/22 13:38:08;;;;;;;11.27;4.30;;;;;;;;;;5050186;28;20021;-77
2020/12/22 13:40:35;;;;;;;20.10;6.55;;;;;;;;;;5051817;28;20029;-77
2020/12/22 13:43:01;;;;;;;11.57;4.53;;;;;;;;;;5050258;28;20017;-78
2020/12/22 13:45:27;;;;;;;10.48;3.72;;;;;;;;;;5049954;28;20078;-77
2020/12/22 13:47:53;;;;;;;9.88;4.63;;;;;;;;;;5050252;28;20339;-78
2020/12/22 13:50:19;;;;;;;6.75;3.80;;;;;;;;;;5050066;28;20017;-77
2020/12/22 13:52:45;;;;;;;10.60;4.35;;;;;;;;;;5051586;28;20021;-78
2020/12/22 13:55:14;;;;;;;12.68;5.00;;;;;;;;;;5050092;28;20024;-76
2020/12/22 13:57:40;;;;;;;8.32;3.75;;;;;;;;;;5049974;28;20017;-76
2020/12/22 14:00:08;;;;;;;8.15;3.78;;;;;;;;;;5050243;28;20462;-76
2020/12/22 14:02:35;;;;;;;8.73;4.30;;;;;;;;;;5052362;28;20024;-81
2020/12/22 14:05:01;;;;;;;12.13;4.35;;;;;;;;;;5053948;28;20048;-78
2020/12/22 14:07:27;;;;;;;11.73;4.05;;;;;;;;;;5054754;28;20087;-78
2020/12/22 14:09:53;;;;;;;11.88;4.22;;;;;;;;;;5053632;28;20025;-78
2020/12/22 14:12:19;;;;;;;13.07;4.28;;;;;;;;;;5053466;28;20032;-77